Old Union, Texas
Current Conditions -  °F | °C
As of 3:35 AM on Thursday 23 Oct 2014 (Local Time) from KLXY Reporting Station
Clear Clear  
Wind Chill: 63°   Ceiling: Unl
Heat Index: 63°   Visibility: 10mi
Dew Point: 55°   Wind: 5mph
Humidity: 77%   Direction: 100°E
Pressure: 30.1"   Gusts: NA
Location:  31.4027°N, 96.4988°W
Report Text: KLXY 230835Z AUTO 10004KT 10SM CLR 17/13 A3010 RMK AO2 T01710130
Loading
Personal Weather Stations






























Interactive Weather Map
Tropical Storm Tracking
New forecast layout! Learn more

10-Day Weather Forecast

Advertisements
Track Severe Weather on mobile